sensor_id;sensor_type;location;lat;lon;timestamp;pressure;altitude;pressure_sealevel;temperature;humidity
62420;BME280;48460;51.616;5.426;2022-07-18T00:01:50;102344.28;;;16.79;72.17
62420;BME280;48460;51.616;5.426;2022-07-18T00:04:15;102351.25;;;16.64;72.76
62420;BME280;48460;51.616;5.426;2022-07-18T00:06:41;102349.56;;;16.46;73.87
62420;BME280;48460;51.616;5.426;2022-07-18T00:09:06;102343.16;;;16.33;74.89
62420;BME280;48460;51.616;5.426;2022-07-18T00:11:32;102339.28;;;16.23;75.34
62420;BME280;48460;51.616;5.426;2022-07-18T00:13:57;102338.22;;;16.09;76.07
62420;BME280;48460;51.616;5.426;2022-07-18T00:16:23;102342.09;;;16.02;76.72
62420;BME280;48460;51.616;5.426;2022-07-18T00:18:49;102335.25;;;15.98;76.63
62420;BME280;48460;51.616;5.426;2022-07-18T00:21:15;102330.63;;;16.02;76.18
62420;BME280;48460;51.616;5.426;2022-07-18T00:23:41;102333.91;;;16.07;75.87
62420;BME280;48460;51.616;5.426;2022-07-18T00:26:06;102328.34;;;16.11;75.59
62420;BME280;48460;51.616;5.426;2022-07-18T00:28:31;102330.00;;;16.14;75.61
62420;BME280;48460;51.616;5.426;2022-07-18T00:30:57;102323.75;;;16.15;75.35
62420;BME280;48460;51.616;5.426;2022-07-18T00:33:22;102328.34;;;16.11;75.74
62420;BME280;48460;51.616;5.426;2022-07-18T00:35:48;102315.88;;;16.13;75.49
62420;BME280;48460;51.616;5.426;2022-07-18T00:38:13;102317.34;;;16.19;75.72
62420;BME280;48460;51.616;5.426;2022-07-18T00:40:39;102311.19;;;16.18;75.36
62420;BME280;48460;51.616;5.426;2022-07-18T00:43:04;102313.75;;;16.20;75.32
62420;BME280;48460;51.616;5.426;2022-07-18T00:45:30;102311.78;;;16.24;75.45
62420;BME280;48460;51.616;5.426;2022-07-18T00:47:55;102306.56;;;16.22;75.34
62420;BME280;48460;51.616;5.426;2022-07-18T00:50:22;102311.78;;;16.24;75.32
62420;BME280;48460;51.616;5.426;2022-07-18T00:52:49;102312.22;;;16.16;74.99
62420;BME280;48460;51.616;5.426;2022-07-18T00:55:14;102314.66;;;15.86;75.50
62420;BME280;48460;51.616;5.426;2022-07-18T00:57:41;102317.47;;;15.64;77.09
62420;BME280;48460;51.616;5.426;2022-07-18T01:00:09;102309.16;;;15.53;77.78
62420;BME280;48460;51.616;5.426;2022-07-18T01:02:55;102304.13;;;15.48;77.80
62420;BME280;48460;51.616;5.426;2022-07-18T01:05:20;102304.31;;;15.43;78.38
62420;BME280;48460;51.616;5.426;2022-07-18T01:07:50;102294.31;;;15.50;77.96
62420;BME280;48460;51.616;5.426;2022-07-18T01:10:17;102294.84;;;15.57;77.83
62420;BME280;48460;51.616;5.426;2022-07-18T01:12:44;102295.63;;;15.59;77.66
62420;BME280;48460;51.616;5.426;2022-07-18T01:15:10;102293.69;;;15.62;77.31
62420;BME280;48460;51.616;5.426;2022-07-18T01:17:35;102293.00;;;15.59;77.94
62420;BME280;48460;51.616;5.426;2022-07-18T01:20:01;102292.09;;;15.58;78.12
62420;BME280;48460;51.616;5.426;2022-07-18T01:22:26;102289.44;;;15.58;77.87
62420;BME280;48460;51.616;5.426;2022-07-18T01:24:52;102293.00;;;15.59;77.88
62420;BME280;48460;51.616;5.426;2022-07-18T01:27:19;102297.97;;;15.47;78.35
62420;BME280;48460;51.616;5.426;2022-07-18T01:29:47;102289.31;;;15.44;78.20
62420;BME280;48460;51.616;5.426;2022-07-18T01:32:13;102299.47;;;15.34;78.13
62420;BME280;48460;51.616;5.426;2022-07-18T01:34:39;102292.63;;;15.30;78.76
62420;BME280;48460;51.616;5.426;2022-07-18T01:37:06;102302.66;;;15.23;79.19
62420;BME280;48460;51.616;5.426;2022-07-18T01:39:32;102295.63;;;15.22;79.01
62420;BME280;48460;51.616;5.426;2022-07-18T01:41:59;102292.28;;;15.19;79.29
62420;BME280;48460;51.616;5.426;2022-07-18T01:44:26;102295.00;;;15.17;78.97
62420;BME280;48460;51.616;5.426;2022-07-18T01:46:52;102298.97;;;15.09;79.40
62420;BME280;48460;51.616;5.426;2022-07-18T01:49:18;102294.16;;;14.98;79.85
62420;BME280;48460;51.616;5.426;2022-07-18T01:51:47;102290.56;;;14.80;80.98
62420;BME280;48460;51.616;5.426;2022-07-18T01:54:13;102294.22;;;14.77;81.29
62420;BME280;48460;51.616;5.426;2022-07-18T01:56:39;102287.41;;;14.72;81.11
62420;BME280;48460;51.616;5.426;2022-07-18T01:59:05;102288.16;;;14.75;80.85
62420;BME280;48460;51.616;5.426;2022-07-18T02:01:30;102287.41;;;14.72;80.57
62420;BME280;48460;51.616;5.426;2022-07-18T02:03:56;102282.25;;;14.69;81.06
62420;BME280;48460;51.616;5.426;2022-07-18T02:06:21;102288.50;;;14.68;80.67
62420;BME280;48460;51.616;5.426;2022-07-18T02:08:47;102281.34;;;14.70;81.17
62420;BME280;48460;51.616;5.426;2022-07-18T02:11:12;102274.19;;;14.72;80.91
62420;BME280;48460;51.616;5.426;2022-07-18T02:13:38;102265.09;;;14.77;80.80
62420;BME280;48460;51.616;5.426;2022-07-18T02:16:03;102273.69;;;14.82;80.25
62420;BME280;48460;51.616;5.426;2022-07-18T02:18:29;102263.81;;;14.86;79.96
62420;BME280;48460;51.616;5.426;2022-07-18T02:20:59;102262.94;;;14.86;79.81
62420;BME280;48460;51.616;5.426;2022-07-18T02:23:24;102263.91;;;14.85;79.84
62420;BME280;48460;51.616;5.426;2022-07-18T02:25:49;102254.34;;;14.80;79.79
62420;BME280;48460;51.616;5.426;2022-07-18T02:28:15;102259.03;;;14.75;79.70
62420;BME280;48460;51.616;5.426;2022-07-18T02:30:40;102264.81;;;14.65;80.49
62420;BME280;48460;51.616;5.426;2022-07-18T02:33:06;102263.41;;;14.57;80.52
62420;BME280;48460;51.616;5.426;2022-07-18T02:35:31;102269.75;;;14.53;80.94
62420;BME280;48460;51.616;5.426;2022-07-18T02:37:57;102268.34;;;14.45;81.36
62420;BME280;48460;51.616;5.426;2022-07-18T02:40:22;102262.59;;;14.35;81.82
62420;BME280;48460;51.616;5.426;2022-07-18T02:42:48;102264.19;;;14.19;81.79
62420;BME280;48460;51.616;5.426;2022-07-18T02:45:13;102254.63;;;14.16;82.15
62420;BME280;48460;51.616;5.426;2022-07-18T02:47:39;102254.41;;;14.21;81.86
62420;BME280;48460;51.616;5.426;2022-07-18T02:50:05;102255.78;;;14.29;81.55
62420;BME280;48460;51.616;5.426;2022-07-18T02:52:31;102256.47;;;14.34;81.90
62420;BME280;48460;51.616;5.426;2022-07-18T02:54:56;102263.41;;;14.37;80.94
62420;BME280;48460;51.616;5.426;2022-07-18T02:57:22;102261.47;;;14.41;80.86
62420;BME280;48460;51.616;5.426;2022-07-18T02:59:47;102254.47;;;14.40;80.89
62420;BME280;48460;51.616;5.426;2022-07-18T03:02:13;102252.59;;;14.42;80.30
62420;BME280;48460;51.616;5.426;2022-07-18T03:04:38;102252.41;;;14.46;80.20
62420;BME280;48460;51.616;5.426;2022-07-18T03:07:04;102261.66;;;14.36;80.51
62420;BME280;48460;51.616;5.426;2022-07-18T03:09:29;102248.78;;;14.28;81.06
62420;BME280;48460;51.616;5.426;2022-07-18T03:11:56;102242.13;;;14.20;80.93
62420;BME280;48460;51.616;5.426;2022-07-18T03:14:22;102238.03;;;14.12;81.39
62420;BME280;48460;51.616;5.426;2022-07-18T03:16:48;102236.84;;;14.20;80.95
62420;BME280;48460;51.616;5.426;2022-07-18T03:19:13;102238.41;;;14.24;81.19
62420;BME280;48460;51.616;5.426;2022-07-18T03:21:39;102241.72;;;14.29;81.18
62420;BME280;48460;51.616;5.426;2022-07-18T03:24:04;102239.91;;;14.29;81.27
62420;BME280;48460;51.616;5.426;2022-07-18T03:26:30;102230.13;;;14.31;80.87
62420;BME280;48460;51.616;5.426;2022-07-18T03:28:55;102235.34;;;14.33;80.82
62420;BME280;48460;51.616;5.426;2022-07-18T03:31:21;102230.91;;;14.33;80.59
62420;BME280;48460;51.616;5.426;2022-07-18T03:33:46;102229.19;;;14.32;80.34
62420;BME280;48460;51.616;5.426;2022-07-18T03:36:12;102231.13;;;14.29;80.23
62420;BME280;48460;51.616;5.426;2022-07-18T03:38:37;102234.75;;;14.26;80.77
62420;BME280;48460;51.616;5.426;2022-07-18T03:41:08;102224.28;;;14.25;80.53
62420;BME280;48460;51.616;5.426;2022-07-18T03:43:33;102228.75;;;14.23;80.30
62420;BME280;48460;51.616;5.426;2022-07-18T03:45:58;102234.19;;;14.20;80.57
62420;BME280;48460;51.616;5.426;2022-07-18T03:48:24;102231.53;;;14.20;80.74
62420;BME280;48460;51.616;5.426;2022-07-18T03:50:49;102228.50;;;14.08;81.09
62420;BME280;48460;51.616;5.426;2022-07-18T03:53:15;102228.78;;;14.02;80.70
62420;BME280;48460;51.616;5.426;2022-07-18T03:55:40;102226.16;;;14.02;80.88
62420;BME280;48460;51.616;5.426;2022-07-18T03:58:06;102226.19;;;14.01;80.72
62420;BME280;48460;51.616;5.426;2022-07-18T04:00:31;102222.84;;;13.97;80.91
62420;BME280;48460;51.616;5.426;2022-07-18T04:02:56;102218.25;;;14.01;80.72
62420;BME280;48460;51.616;5.426;2022-07-18T04:05:22;102220.75;;;14.04;80.68
62420;BME280;48460;51.616;5.426;2022-07-18T04:07:47;102223.31;;;14.07;81.07
62420;BME280;48460;51.616;5.426;2022-07-18T04:10:13;102227.44;;;14.12;81.24
62420;BME280;48460;51.616;5.426;2022-07-18T04:12:49;102218.50;;;14.15;80.99
62420;BME280;48460;51.616;5.426;2022-07-18T04:15:16;102213.34;;;14.12;80.99
62420;BME280;48460;51.616;5.426;2022-07-18T04:17:41;102219.22;;;14.19;80.71
62420;BME280;48460;51.616;5.426;2022-07-18T04:20:07;102206.88;;;14.19;80.66
62420;BME280;48460;51.616;5.426;2022-07-18T04:22:50;102210.25;;;14.23;80.45
62420;BME280;48460;51.616;5.426;2022-07-18T04:25:17;102216.19;;;14.28;80.66
62420;BME280;48460;51.616;5.426;2022-07-18T04:27:42;102209.72;;;14.33;80.63
62420;BME280;48460;51.616;5.426;2022-07-18T04:30:08;102204.25;;;14.38;79.66
62420;BME280;48460;51.616;5.426;2022-07-18T04:32:34;102197.81;;;14.44;80.13
62420;BME280;48460;51.616;5.426;2022-07-18T04:35:00;102200.91;;;14.53;80.39
62420;BME280;48460;51.616;5.426;2022-07-18T04:37:25;102198.69;;;14.63;79.83
62420;BME280;48460;51.616;5.426;2022-07-18T04:39:50;102199.28;;;14.70;77.76
62420;BME280;48460;51.616;5.426;2022-07-18T04:42:16;102194.28;;;14.81;78.16
62420;BME280;48460;51.616;5.426;2022-07-18T04:44:41;102190.59;;;14.85;77.93
62420;BME280;48460;51.616;5.426;2022-07-18T04:47:07;102200.78;;;14.93;78.06
62420;BME280;48460;51.616;5.426;2022-07-18T04:49:32;102202.53;;;14.94;78.07
62420;BME280;48460;51.616;5.426;2022-07-18T04:51:57;102200.44;;;15.00;77.54
62420;BME280;48460;51.616;5.426;2022-07-18T04:54:23;102200.34;;;15.02;77.20
62420;BME280;48460;51.616;5.426;2022-07-18T04:56:48;102195.69;;;15.07;78.00
62420;BME280;48460;51.616;5.426;2022-07-18T04:59:14;102191.22;;;15.08;77.40
62420;BME280;48460;51.616;5.426;2022-07-18T05:01:40;102188.44;;;15.11;77.50
62420;BME280;48460;51.616;5.426;2022-07-18T05:04:05;102180.19;;;15.17;77.01
62420;BME280;48460;51.616;5.426;2022-07-18T05:06:31;102191.25;;;15.25;76.60
62420;BME280;48460;51.616;5.426;2022-07-18T05:08:56;102197.84;;;15.35;75.67
62420;BME280;48460;51.616;5.426;2022-07-18T05:11:21;102207.88;;;15.46;73.69
62420;BME280;48460;51.616;5.426;2022-07-18T05:13:47;102211.00;;;15.54;73.74
62420;BME280;48460;51.616;5.426;2022-07-18T05:16:18;102199.91;;;15.63;74.53
62420;BME280;48460;51.616;5.426;2022-07-18T05:18:43;102202.81;;;15.76;71.82
62420;BME280;48460;51.616;5.426;2022-07-18T05:21:09;102195.00;;;15.90;70.39
62420;BME280;48460;51.616;5.426;2022-07-18T05:23:34;102201.38;;;16.04;69.57
62420;BME280;48460;51.616;5.426;2022-07-18T05:26:02;102195.31;;;16.17;69.62
62420;BME280;48460;51.616;5.426;2022-07-18T05:28:28;102207.19;;;16.28;68.25
62420;BME280;48460;51.616;5.426;2022-07-18T05:30:53;102212.06;;;16.35;68.44
62420;BME280;48460;51.616;5.426;2022-07-18T05:33:20;102213.34;;;16.44;67.17
62420;BME280;48460;51.616;5.426;2022-07-18T05:35:47;102203.25;;;16.51;67.01
62420;BME280;48460;51.616;5.426;2022-07-18T05:38:13;102207.13;;;16.61;67.07
62420;BME280;48460;51.616;5.426;2022-07-18T05:40:39;102203.00;;;16.71;66.86
62420;BME280;48460;51.616;5.426;2022-07-18T05:43:04;102209.56;;;16.81;66.59
62420;BME280;48460;51.616;5.426;2022-07-18T05:45:30;102211.75;;;16.89;66.52
62420;BME280;48460;51.616;5.426;2022-07-18T05:47:55;102216.22;;;16.89;66.24
62420;BME280;48460;51.616;5.426;2022-07-18T05:50:22;102214.16;;;16.94;66.80
62420;BME280;48460;51.616;5.426;2022-07-18T05:52:47;102208.06;;;17.07;67.53
62420;BME280;48460;51.616;5.426;2022-07-18T05:55:13;102210.88;;;17.20;66.79
62420;BME280;48460;51.616;5.426;2022-07-18T05:57:38;102200.97;;;17.38;66.60
62420;BME280;48460;51.616;5.426;2022-07-18T06:00:05;102197.59;;;17.65;65.54
62420;BME280;48460;51.616;5.426;2022-07-18T06:02:32;102202.06;;;17.94;63.51
62420;BME280;48460;51.616;5.426;2022-07-18T06:04:58;102204.91;;;18.06;62.58
62420;BME280;48460;51.616;5.426;2022-07-18T06:07:24;102208.97;;;18.11;62.08
62420;BME280;48460;51.616;5.426;2022-07-18T06:09:50;102205.19;;;18.30;62.51
62420;BME280;48460;51.616;5.426;2022-07-18T06:12:15;102198.09;;;18.57;61.66
62420;BME280;48460;51.616;5.426;2022-07-18T06:14:40;102197.31;;;18.70;61.96
62420;BME280;48460;51.616;5.426;2022-07-18T06:17:06;102192.81;;;18.84;61.88
62420;BME280;48460;51.616;5.426;2022-07-18T06:19:31;102189.69;;;19.05;61.35
62420;BME280;48460;51.616;5.426;2022-07-18T06:21:57;102193.34;;;19.04;60.30
62420;BME280;48460;51.616;5.426;2022-07-18T06:24:23;102192.72;;;19.13;59.85
62420;BME280;48460;51.616;5.426;2022-07-18T06:26:48;102187.84;;;19.32;60.05
62420;BME280;48460;51.616;5.426;2022-07-18T06:29:15;102182.13;;;19.51;60.30
62420;BME280;48460;51.616;5.426;2022-07-18T06:31:40;102180.47;;;19.76;58.84
62420;BME280;48460;51.616;5.426;2022-07-18T06:34:05;102172.56;;;19.74;57.87
62420;BME280;48460;51.616;5.426;2022-07-18T06:36:31;102171.81;;;19.72;58.39
62420;BME280;48460;51.616;5.426;2022-07-18T06:38:57;102174.28;;;19.88;58.17
62420;BME280;48460;51.616;5.426;2022-07-18T06:41:22;102176.38;;;20.09;57.53
62420;BME280;48460;51.616;5.426;2022-07-18T06:43:47;102169.50;;;20.30;56.82
62420;BME280;48460;51.616;5.426;2022-07-18T06:46:13;102170.75;;;20.37;57.29
62420;BME280;48460;51.616;5.426;2022-07-18T06:48:38;102169.47;;;20.43;57.03
62420;BME280;48460;51.616;5.426;2022-07-18T06:51:05;102169.25;;;20.59;57.26
62420;BME280;48460;51.616;5.426;2022-07-18T06:53:31;102175.28;;;20.74;55.45
62420;BME280;48460;51.616;5.426;2022-07-18T06:55:57;102160.78;;;20.89;55.05
62420;BME280;48460;51.616;5.426;2022-07-18T06:58:23;102166.91;;;21.02;55.30
62420;BME280;48460;51.616;5.426;2022-07-18T07:00:49;102164.03;;;21.16;55.12
62420;BME280;48460;51.616;5.426;2022-07-18T07:03:14;102161.91;;;21.33;54.69
62420;BME280;48460;51.616;5.426;2022-07-18T07:05:40;102160.88;;;21.47;52.98
62420;BME280;48460;51.616;5.426;2022-07-18T07:08:05;102166.84;;;21.50;53.30
62420;BME280;48460;51.616;5.426;2022-07-18T07:10:31;102175.75;;;21.62;52.70
62420;BME280;48460;51.616;5.426;2022-07-18T07:12:56;102165.06;;;21.84;53.76
62420;BME280;48460;51.616;5.426;2022-07-18T07:15:23;102167.75;;;22.29;52.83
62420;BME280;48460;51.616;5.426;2022-07-18T07:17:49;102172.19;;;22.63;51.13
62420;BME280;48460;51.616;5.426;2022-07-18T07:20:16;102179.09;;;22.88;50.31
62420;BME280;48460;51.616;5.426;2022-07-18T07:22:52;102183.28;;;23.13;49.78
62420;BME280;48460;51.616;5.426;2022-07-18T07:25:19;102172.03;;;23.19;48.78
62420;BME280;48460;51.616;5.426;2022-07-18T07:27:45;102176.91;;;23.14;47.17
62420;BME280;48460;51.616;5.426;2022-07-18T07:30:12;102171.91;;;23.20;48.59
62420;BME280;48460;51.616;5.426;2022-07-18T07:32:40;102170.66;;;23.25;48.13
62420;BME280;48460;51.616;5.426;2022-07-18T07:35:08;102165.88;;;23.28;47.88
62420;BME280;48460;51.616;5.426;2022-07-18T07:37:40;102168.19;;;23.33;48.87
62420;BME280;48460;51.616;5.426;2022-07-18T07:40:06;102164.72;;;23.42;49.27
62420;BME280;48460;51.616;5.426;2022-07-18T07:42:32;102166.22;;;23.56;48.53
62420;BME280;48460;51.616;5.426;2022-07-18T07:44:57;102164.81;;;23.82;47.38
62420;BME280;48460;51.616;5.426;2022-07-18T07:47:23;102167.09;;;23.87;46.27
62420;BME280;48460;51.616;5.426;2022-07-18T07:49:48;102165.56;;;23.94;45.66
62420;BME280;48460;51.616;5.426;2022-07-18T07:52:14;102161.06;;;24.35;46.77
62420;BME280;48460;51.616;5.426;2022-07-18T07:54:43;102155.19;;;24.70;45.41
62420;BME280;48460;51.616;5.426;2022-07-18T07:57:10;102163.59;;;24.87;44.77
62420;BME280;48460;51.616;5.426;2022-07-18T07:59:35;102149.69;;;24.91;43.36
62420;BME280;48460;51.616;5.426;2022-07-18T08:02:01;102131.69;;;25.21;45.44
62420;BME280;48460;51.616;5.426;2022-07-18T08:04:26;102126.81;;;25.54;45.24
62420;BME280;48460;51.616;5.426;2022-07-18T08:06:52;102126.34;;;25.68;43.68
62420;BME280;48460;51.616;5.426;2022-07-18T08:09:17;102127.13;;;25.78;44.52
62420;BME280;48460;51.616;5.426;2022-07-18T08:11:42;102123.81;;;26.04;44.16
62420;BME280;48460;51.616;5.426;2022-07-18T08:14:08;102120.09;;;26.05;42.59
62420;BME280;48460;51.616;5.426;2022-07-18T08:16:33;102121.84;;;25.96;41.59
62420;BME280;48460;51.616;5.426;2022-07-18T08:18:59;102116.97;;;26.09;43.06
62420;BME280;48460;51.616;5.426;2022-07-18T08:21:24;102123.84;;;26.22;42.83
62420;BME280;48460;51.616;5.426;2022-07-18T08:23:49;102126.00;;;26.64;42.22
62420;BME280;48460;51.616;5.426;2022-07-18T08:26:15;102133.94;;;27.01;40.89
62420;BME280;48460;51.616;5.426;2022-07-18T08:28:41;102135.19;;;27.33;38.75
62420;BME280;48460;51.616;5.426;2022-07-18T08:31:06;102141.03;;;27.46;38.08
62420;BME280;48460;51.616;5.426;2022-07-18T08:33:31;102145.22;;;27.66;37.54
62420;BME280;48460;51.616;5.426;2022-07-18T08:35:57;102144.53;;;27.90;37.14
62420;BME280;48460;51.616;5.426;2022-07-18T08:38:22;102144.44;;;28.08;33.92
62420;BME280;48460;51.616;5.426;2022-07-18T08:40:48;102146.25;;;28.00;34.53
62420;BME280;48460;51.616;5.426;2022-07-18T08:43:14;102145.69;;;28.30;34.24
62420;BME280;48460;51.616;5.426;2022-07-18T08:45:42;102136.41;;;28.33;32.07
62420;BME280;48460;51.616;5.426;2022-07-18T08:48:09;102134.72;;;28.32;32.03
62420;BME280;48460;51.616;5.426;2022-07-18T08:50:34;102133.16;;;28.21;32.89
62420;BME280;48460;51.616;5.426;2022-07-18T08:53:00;102138.25;;;28.32;33.68
62420;BME280;48460;51.616;5.426;2022-07-18T08:55:26;102133.75;;;28.41;31.60
62420;BME280;48460;51.616;5.426;2022-07-18T08:57:53;102137.00;;;28.53;33.62
62420;BME280;48460;51.616;5.426;2022-07-18T09:00:18;102133.97;;;28.89;34.00
62420;BME280;48460;51.616;5.426;2022-07-18T09:02:44;102144.66;;;29.06;32.12
62420;BME280;48460;51.616;5.426;2022-07-18T09:05:20;102131.44;;;29.20;32.32
62420;BME280;48460;51.616;5.426;2022-07-18T09:07:45;102129.69;;;29.51;30.97
62420;BME280;48460;51.616;5.426;2022-07-18T09:10:11;102132.13;;;29.86;31.20
62420;BME280;48460;51.616;5.426;2022-07-18T09:12:39;102123.38;;;30.15;29.96
62420;BME280;48460;51.616;5.426;2022-07-18T09:15:19;102124.56;;;30.66;30.08
62420;BME280;48460;51.616;5.426;2022-07-18T09:17:45;102131.97;;;30.81;30.11
62420;BME280;48460;51.616;5.426;2022-07-18T09:20:12;102130.53;;;30.70;29.55
62420;BME280;48460;51.616;5.426;2022-07-18T09:22:45;102129.13;;;30.20;27.81
62420;BME280;48460;51.616;5.426;2022-07-18T09:25:14;102130.09;;;30.58;28.51
62420;BME280;48460;51.616;5.426;2022-07-18T09:27:41;102122.75;;;31.05;29.03
62420;BME280;48460;51.616;5.426;2022-07-18T09:30:19;102133.56;;;31.51;29.28
62420;BME280;48460;51.616;5.426;2022-07-18T09:33:05;102131.22;;;31.92;28.17
62420;BME280;48460;51.616;5.426;2022-07-18T09:35:42;102132.44;;;31.60;27.17
62420;BME280;48460;51.616;5.426;2022-07-18T09:38:14;102132.97;;;31.55;28.17
62420;BME280;48460;51.616;5.426;2022-07-18T09:40:42;102136.53;;;31.86;28.23
62420;BME280;48460;51.616;5.426;2022-07-18T09:43:13;102128.94;;;31.81;29.15
62420;BME280;48460;51.616;5.426;2022-07-18T09:45:40;102133.63;;;31.87;27.98
62420;BME280;48460;51.616;5.426;2022-07-18T09:48:08;102136.97;;;32.34;27.70
62420;BME280;48460;51.616;5.426;2022-07-18T09:50:45;102138.03;;;32.54;28.62
62420;BME280;48460;51.616;5.426;2022-07-18T09:53:29;102131.47;;;32.91;27.31
62420;BME280;48460;51.616;5.426;2022-07-18T09:55:56;102136.25;;;32.89;27.03
62420;BME280;48460;51.616;5.426;2022-07-18T09:58:24;102128.38;;;32.52;27.71
62420;BME280;48460;51.616;5.426;2022-07-18T10:00:51;102120.38;;;32.72;27.28
62420;BME280;48460;51.616;5.426;2022-07-18T10:03:18;102120.00;;;32.75;26.57
62420;BME280;48460;51.616;5.426;2022-07-18T10:05:48;102127.38;;;32.81;26.67
62420;BME280;48460;51.616;5.426;2022-07-18T10:08:19;102134.47;;;32.39;28.04
62420;BME280;48460;51.616;5.426;2022-07-18T10:10:47;102123.88;;;32.65;26.48
62420;BME280;48460;51.616;5.426;2022-07-18T10:13:16;102127.84;;;33.06;26.19
62420;BME280;48460;51.616;5.426;2022-07-18T10:15:44;102127.81;;;32.99;26.31
62420;BME280;48460;51.616;5.426;2022-07-18T10:18:18;102125.00;;;33.84;26.50
62420;BME280;48460;51.616;5.426;2022-07-18T10:20:47;102117.50;;;33.99;25.65
62420;BME280;48460;51.616;5.426;2022-07-18T10:23:20;102116.38;;;34.35;25.98
62420;BME280;48460;51.616;5.426;2022-07-18T10:33:53;102115.59;;;34.74;23.31
62420;BME280;48460;51.616;5.426;2022-07-18T10:36:22;102116.03;;;34.98;24.60
62420;BME280;48460;51.616;5.426;2022-07-18T10:39:12;102118.97;;;35.03;25.12
62420;BME280;48460;51.616;5.426;2022-07-18T10:57:40;102106.97;;;35.30;24.59
62420;BME280;48460;51.616;5.426;2022-07-18T11:00:07;102101.56;;;35.10;24.94
62420;BME280;48460;51.616;5.426;2022-07-18T11:05:30;102094.13;;;35.44;24.77
62420;BME280;48460;51.616;5.426;2022-07-18T11:18:22;102091.28;;;36.22;24.58
62420;BME280;48460;51.616;5.426;2022-07-18T11:20:49;102091.72;;;36.19;23.76
62420;BME280;48460;51.616;5.426;2022-07-18T11:23:24;102086.25;;;35.74;24.82
62420;BME280;48460;51.616;5.426;2022-07-18T11:25:52;102080.97;;;35.79;23.45
62420;BME280;48460;51.616;5.426;2022-07-18T11:28:20;102084.38;;;36.52;24.04
62420;BME280;48460;51.616;5.426;2022-07-18T11:30:58;102078.84;;;36.83;23.23
62420;BME280;48460;51.616;5.426;2022-07-18T11:33:26;102079.28;;;37.42;22.33
62420;BME280;48460;51.616;5.426;2022-07-18T11:36:01;102076.78;;;36.97;22.20
62420;BME280;48460;51.616;5.426;2022-07-18T11:38:26;102072.84;;;36.93;22.18
62420;BME280;48460;51.616;5.426;2022-07-18T11:40:52;102081.50;;;37.15;21.67
62420;BME280;48460;51.616;5.426;2022-07-18T11:43:22;102077.72;;;37.34;22.36
62420;BME280;48460;51.616;5.426;2022-07-18T11:45:58;102073.56;;;37.80;22.16
62420;BME280;48460;51.616;5.426;2022-07-18T11:48:24;102070.63;;;38.12;20.58
62420;BME280;48460;51.616;5.426;2022-07-18T11:50:49;102058.31;;;38.45;19.72
62420;BME280;48460;51.616;5.426;2022-07-18T11:53:16;102064.31;;;38.23;21.83
62420;BME280;48460;51.616;5.426;2022-07-18T11:55:41;102058.66;;;38.06;20.54
62420;BME280;48460;51.616;5.426;2022-07-18T11:58:11;102059.03;;;37.92;20.97
62420;BME280;48460;51.616;5.426;2022-07-18T12:00:37;102059.03;;;37.92;20.26
62420;BME280;48460;51.616;5.426;2022-07-18T12:05:40;102051.19;;;37.95;21.48
62420;BME280;48460;51.616;5.426;2022-07-18T12:08:26;102051.06;;;37.72;21.20
62420;BME280;48460;51.616;5.426;2022-07-18T12:13:56;102045.13;;;37.75;20.84
62420;BME280;48460;51.616;5.426;2022-07-18T12:16:26;102038.84;;;37.86;20.23
62420;BME280;48460;51.616;5.426;2022-07-18T12:18:56;102048.34;;;37.72;20.72
62420;BME280;48460;51.616;5.426;2022-07-18T12:21:22;102043.66;;;37.60;20.56
62420;BME280;48460;51.616;5.426;2022-07-18T12:23:48;102037.72;;;37.94;20.75
62420;BME280;48460;51.616;5.426;2022-07-18T12:26:27;102042.47;;;37.68;20.66
62420;BME280;48460;51.616;5.426;2022-07-18T12:29:11;102034.47;;;38.27;20.94
62420;BME280;48460;51.616;5.426;2022-07-18T12:31:41;102036.72;;;37.88;20.46
62420;BME280;48460;51.616;5.426;2022-07-18T12:34:11;102039.94;;;37.85;20.86
62420;BME280;48460;51.616;5.426;2022-07-18T12:36:50;102031.91;;;37.53;20.52
62420;BME280;48460;51.616;5.426;2022-07-18T12:39:42;102028.06;;;37.36;21.44
62420;BME280;48460;51.616;5.426;2022-07-18T12:42:08;102029.97;;;37.54;21.51
62420;BME280;48460;51.616;5.426;2022-07-18T12:44:33;102030.13;;;37.59;20.40
62420;BME280;48460;51.616;5.426;2022-07-18T12:46:59;102024.63;;;37.89;19.96
62420;BME280;48460;51.616;5.426;2022-07-18T12:49:24;102023.53;;;38.62;20.30
62420;BME280;48460;51.616;5.426;2022-07-18T12:51:49;102024.00;;;38.59;18.70
62420;BME280;48460;51.616;5.426;2022-07-18T12:54:16;102021.84;;;39.08;18.11
62420;BME280;48460;51.616;5.426;2022-07-18T12:56:41;102009.00;;;39.37;18.01
62420;BME280;48460;51.616;5.426;2022-07-18T12:59:07;102004.75;;;39.06;18.13
62420;BME280;48460;51.616;5.426;2022-07-18T13:01:35;102010.25;;;38.47;19.37
62420;BME280;48460;51.616;5.426;2022-07-18T13:04:03;102008.63;;;38.16;18.58
62420;BME280;48460;51.616;5.426;2022-07-18T13:06:28;102010.25;;;38.71;18.22
62420;BME280;48460;51.616;5.426;2022-07-18T13:08:54;101997.06;;;39.08;18.61
62420;BME280;48460;51.616;5.426;2022-07-18T13:11:21;102006.34;;;39.42;18.63
62420;BME280;48460;51.616;5.426;2022-07-18T13:13:47;101995.88;;;39.16;19.39
62420;BME280;48460;51.616;5.426;2022-07-18T13:16:12;101996.78;;;38.16;18.80
62420;BME280;48460;51.616;5.426;2022-07-18T13:18:38;101989.41;;;38.28;19.56
62420;BME280;48460;51.616;5.426;2022-07-18T13:21:03;101987.31;;;38.65;18.75
62420;BME280;48460;51.616;5.426;2022-07-18T13:23:29;101989.09;;;38.60;18.55
62420;BME280;48460;51.616;5.426;2022-07-18T13:25:54;101994.47;;;38.90;18.24
62420;BME280;48460;51.616;5.426;2022-07-18T13:28:20;101984.78;;;38.64;17.39
62420;BME280;48460;51.616;5.426;2022-07-18T13:30:45;101986.09;;;38.73;19.18
62420;BME280;48460;51.616;5.426;2022-07-18T13:33:11;101986.81;;;38.80;19.22